createdAt,value
2023-02-22T00:00:50.044Z,72.16
2023-02-22T00:02:54.694Z,71.87
2023-02-22T00:04:56.771Z,72.00
2023-02-22T00:07:01.372Z,72.03
2023-02-22T00:09:03.621Z,71.91
2023-02-22T00:11:11.433Z,71.88
2023-02-22T00:13:14.600Z,71.93
2023-02-22T00:15:37.107Z,72.09
2023-02-22T00:17:39.278Z,72.48
2023-02-22T00:19:41.311Z,72.67
2023-02-22T00:21:44.914Z,72.65
2023-02-22T00:23:47.866Z,72.62
2023-02-22T00:25:50.752Z,72.64
2023-02-22T00:27:53.096Z,72.33
2023-02-22T00:29:56.613Z,72.24
2023-02-22T00:31:59.184Z,72.34
2023-02-22T00:34:01.218Z,72.69
2023-02-22T00:36:03.851Z,72.85
2023-02-22T00:38:05.963Z,73.19
2023-02-22T00:40:12.243Z,73.21
2023-02-22T00:42:15.007Z,73.27
2023-02-22T00:44:17.155Z,73.49
2023-02-22T00:46:19.378Z,73.38
2023-02-22T00:48:21.527Z,73.92
2023-02-22T00:50:24.990Z,73.99
2023-02-22T00:52:28.157Z,74.41
2023-02-22T00:54:30.758Z,74.44
2023-02-22T00:56:36.226Z,75.20
2023-02-22T00:58:38.266Z,75.13
2023-02-22T01:00:41.788Z,75.30
2023-02-22T01:02:44.000Z,75.23
2023-02-22T01:04:46.297Z,75.02
2023-02-22T01:06:48.486Z,75.28
2023-02-22T01:08:50.638Z,75.25
2023-02-22T01:10:52.799Z,75.55
2023-02-22T01:12:55.115Z,75.43
2023-02-22T01:14:58.314Z,75.82
2023-02-22T01:17:00.390Z,76.01
2023-02-22T01:19:02.633Z,76.26
2023-02-22T01:21:05.279Z,75.93
2023-02-22T01:23:08.203Z,76.66
2023-02-22T01:25:11.952Z,76.58
2023-02-22T01:27:14.161Z,76.34
2023-02-22T01:29:16.793Z,76.29
2023-02-22T01:31:19.129Z,75.85
2023-02-22T01:33:21.346Z,76.15
2023-02-22T01:35:28.426Z,76.11
2023-02-22T01:37:31.862Z,75.82
2023-02-22T01:39:34.212Z,76.12
2023-02-22T01:41:37.298Z,76.26
2023-02-22T01:43:39.398Z,76.55
2023-02-22T01:46:03.349Z,76.60
2023-02-22T01:48:23.116Z,76.64
2023-02-22T01:50:25.250Z,76.31
2023-02-22T01:52:27.334Z,76.58
2023-02-22T01:54:42.296Z,76.93
2023-02-22T01:57:23.328Z,77.26
2023-02-22T01:59:25.482Z,77.07
2023-02-22T02:01:27.701Z,76.76
2023-02-22T02:03:33.296Z,77.15
2023-02-22T02:05:35.382Z,77.67
2023-02-22T02:07:37.540Z,77.13
2023-02-22T02:09:48.592Z,77.52
2023-02-22T02:11:51.079Z,77.39
2023-02-22T02:13:55.252Z,77.61
2023-02-22T02:15:57.444Z,77.64
2023-02-22T02:18:01.683Z,77.88
2023-02-22T02:20:11.993Z,77.73
2023-02-22T02:22:32.286Z,77.49
2023-02-22T02:25:24.263Z,77.80
2023-02-22T02:27:28.706Z,77.81
2023-02-22T02:30:09.793Z,77.78
2023-02-22T02:32:44.692Z,78.37
2023-02-22T02:35:06.253Z,78.28
2023-02-22T02:37:17.268Z,77.90
2023-02-22T02:39:31.196Z,77.99
2023-02-22T02:41:52.075Z,78.29
2023-02-22T02:44:35.730Z,78.30
2023-02-22T02:47:22.628Z,78.45
2023-02-22T02:49:33.065Z,78.34
2023-02-22T02:51:40.236Z,78.45
2023-02-22T02:53:45.534Z,78.17
2023-02-22T02:55:47.694Z,78.56
2023-02-22T02:57:49.742Z,78.23
2023-02-22T02:59:51.764Z,78.45
2023-02-22T03:02:15.041Z,78.23
2023-02-22T03:04:39.926Z,78.83
2023-02-22T03:07:11.181Z,78.96
2023-02-22T03:09:50.808Z,78.48
2023-02-22T03:12:21.704Z,78.21
2023-02-22T03:15:18.276Z,78.81
2023-02-22T03:18:03.108Z,78.53
2023-02-22T03:20:32.396Z,78.78
2023-02-22T03:22:44.269Z,78.70
2023-02-22T03:24:53.119Z,78.67
2023-02-22T03:27:04.510Z,79.04
2023-02-22T03:29:07.005Z,79.16
2023-02-22T03:31:15.216Z,79.02
2023-02-22T03:33:36.763Z,79.31
2023-02-22T03:35:44.661Z,79.72
2023-02-22T03:37:48.246Z,79.93
2023-02-22T03:39:51.887Z,79.50
2023-02-22T03:41:54.015Z,79.43
2023-02-22T03:44:03.988Z,80.38
2023-02-22T03:46:06.660Z,80.13
2023-02-22T03:48:20.937Z,80.03
2023-02-22T03:50:26.878Z,80.32
2023-02-22T03:52:28.946Z,80.41
2023-02-22T03:54:31.260Z,80.36
2023-02-22T03:56:37.991Z,80.37
2023-02-22T03:58:40.710Z,80.28
2023-02-22T04:00:44.632Z,80.64
2023-02-22T04:02:46.871Z,80.31
2023-02-22T04:04:48.951Z,79.91
2023-02-22T04:06:51.655Z,79.83
2023-02-22T04:08:53.737Z,80.10
2023-02-22T04:10:55.929Z,80.23
2023-02-22T04:12:58.967Z,79.50
2023-02-22T04:15:01.641Z,79.44
2023-02-22T04:17:03.765Z,79.86
2023-02-22T04:19:06.485Z,80.07
2023-02-22T04:21:09.349Z,80.88
2023-02-22T04:23:11.462Z,80.76
2023-02-22T04:25:14.650Z,81.28
2023-02-22T04:27:16.722Z,81.42
2023-02-22T04:29:18.730Z,81.61
2023-02-22T04:31:20.884Z,81.75
2023-02-22T04:33:23.011Z,81.44
2023-02-22T04:35:25.075Z,81.97
2023-02-22T04:37:27.173Z,81.89
2023-02-22T04:39:29.317Z,81.80
2023-02-22T04:41:31.657Z,81.86
2023-02-22T04:43:33.793Z,82.02
2023-02-22T04:45:36.163Z,82.43
2023-02-22T04:47:38.339Z,82.39
2023-02-22T04:49:40.483Z,82.42
2023-02-22T04:51:42.641Z,82.21
2023-02-22T04:53:44.705Z,81.98
2023-02-22T04:55:47.080Z,82.00
2023-02-22T04:57:49.113Z,82.15
2023-02-22T04:59:51.366Z,81.91
2023-02-22T05:01:53.551Z,81.93
2023-02-22T05:03:55.600Z,81.73
2023-02-22T05:05:57.753Z,81.79
2023-02-22T05:07:59.856Z,81.61
2023-02-22T05:10:03.109Z,81.13
2023-02-22T05:12:05.628Z,81.29
2023-02-22T05:14:07.963Z,81.18
2023-02-22T05:16:10.200Z,80.46
2023-02-22T05:18:12.261Z,80.64
2023-02-22T05:20:35.361Z,80.83
2023-02-22T05:22:37.408Z,80.79
2023-02-22T05:24:39.463Z,81.03
2023-02-22T05:26:44.707Z,81.33
2023-02-22T05:28:46.755Z,81.07
2023-02-22T05:30:48.797Z,81.01
2023-02-22T05:32:51.891Z,80.67
2023-02-22T05:34:53.948Z,80.71
2023-02-22T05:36:56.001Z,81.14
2023-02-22T05:38:58.128Z,80.94
2023-02-22T05:41:00.664Z,80.50
2023-02-22T05:43:02.977Z,80.50
2023-02-22T05:45:05.693Z,80.85
2023-02-22T05:47:07.680Z,80.64
2023-02-22T05:49:09.772Z,80.26
2023-02-22T05:51:12.179Z,79.85
2023-02-22T05:53:14.474Z,79.73
2023-02-22T05:55:19.317Z,80.07
2023-02-22T05:57:21.422Z,80.36
2023-02-22T05:59:23.577Z,80.13
2023-02-22T06:01:26.428Z,80.22
2023-02-22T06:03:28.526Z,80.58
2023-02-22T06:05:31.132Z,80.59
2023-02-22T06:07:33.131Z,80.99
2023-02-22T06:09:35.203Z,80.42
2023-02-22T06:11:37.450Z,80.35
2023-02-22T06:13:39.826Z,80.13
2023-02-22T06:15:41.982Z,80.27
2023-02-22T06:17:44.284Z,80.26
2023-02-22T06:19:46.323Z,80.19
2023-02-22T06:21:56.057Z,80.04
2023-02-22T06:23:58.133Z,80.60
2023-02-22T06:26:00.190Z,80.82
2023-02-22T06:28:02.514Z,80.74
2023-02-22T06:30:05.505Z,80.48
2023-02-22T06:32:07.660Z,80.13
2023-02-22T06:34:13.599Z,80.18
2023-02-22T06:36:15.643Z,80.67
2023-02-22T06:38:24.658Z,80.27
2023-02-22T06:40:29.564Z,80.13
2023-02-22T06:42:31.721Z,79.64
2023-02-22T06:44:33.872Z,79.81
2023-02-22T06:46:36.161Z,79.78
2023-02-22T06:48:40.229Z,79.53
2023-02-22T06:50:42.293Z,79.61
2023-02-22T06:52:45.518Z,79.40
2023-02-22T06:54:47.982Z,78.90
2023-02-22T06:56:50.043Z,78.48
2023-02-22T06:58:52.193Z,78.26
2023-02-22T07:00:54.539Z,77.88
2023-02-22T07:02:56.854Z,77.45
2023-02-22T07:05:00.438Z,77.56
2023-02-22T07:07:02.491Z,77.40
2023-02-22T07:09:04.672Z,77.26
2023-02-22T07:11:06.933Z,76.80
2023-02-22T07:13:09.384Z,76.58
2023-02-22T07:15:11.417Z,76.39
2023-02-22T07:17:13.529Z,76.14
2023-02-22T07:19:15.646Z,76.10
2023-02-22T07:21:19.276Z,75.58
2023-02-22T07:23:21.777Z,75.00
2023-02-22T07:25:24.285Z,74.55
2023-02-22T07:27:26.418Z,74.36
2023-02-22T07:29:28.602Z,74.08
2023-02-22T07:31:38.972Z,74.27
2023-02-22T07:33:41.084Z,73.78
2023-02-22T07:35:48.168Z,72.68
2023-02-22T07:37:50.344Z,72.69
2023-02-22T07:39:52.402Z,72.43
2023-02-22T07:41:54.626Z,72.34
2023-02-22T07:43:56.742Z,71.93
2023-02-22T07:46:00.315Z,71.82
2023-02-22T07:48:03.904Z,71.25
2023-02-22T07:50:06.324Z,70.90
2023-02-22T07:52:08.416Z,70.98
2023-02-22T07:54:10.533Z,71.05
2023-02-22T07:56:12.709Z,70.82
2023-02-22T07:58:15.697Z,70.88
2023-02-22T08:00:24.717Z,70.39
2023-02-22T08:02:27.062Z,68.88
2023-02-22T08:04:29.222Z,68.88
2023-02-22T08:06:32.179Z,68.90
2023-02-22T08:08:34.674Z,68.33
2023-02-22T08:10:36.915Z,68.30
2023-02-22T08:12:39.062Z,68.28
2023-02-22T08:14:41.160Z,67.72
2023-02-22T08:16:43.290Z,67.24
2023-02-22T08:18:45.511Z,65.98
2023-02-22T08:20:49.497Z,65.61
2023-02-22T08:22:51.817Z,65.57
2023-02-22T08:24:54.825Z,64.83
2023-02-22T08:26:56.854Z,64.78
2023-02-22T08:28:59.022Z,65.84
2023-02-22T08:31:01.567Z,65.19
2023-02-22T08:33:04.336Z,64.53
2023-02-22T08:35:07.075Z,63.80
2023-02-22T08:37:09.243Z,63.14
2023-02-22T08:39:13.897Z,63.47
2023-02-22T08:41:16.394Z,62.93
2023-02-22T08:43:19.723Z,62.44
2023-02-22T08:45:21.858Z,58.50
2023-02-22T08:47:23.916Z,57.80
2023-02-22T08:49:26.049Z,58.57
2023-02-22T08:51:28.151Z,57.65
2023-02-22T08:53:32.391Z,58.38
2023-02-22T08:55:38.057Z,56.83
2023-02-22T08:57:40.125Z,53.52
2023-02-22T08:59:42.898Z,53.82
2023-02-22T09:01:45.220Z,52.69
2023-02-22T09:03:49.111Z,52.81
2023-02-22T09:05:51.354Z,53.70
2023-02-22T09:07:55.630Z,54.42
2023-02-22T09:09:57.700Z,51.77
2023-02-22T09:11:59.789Z,52.09
2023-02-22T09:14:02.069Z,52.06
2023-02-22T09:16:04.514Z,51.08
2023-02-22T09:18:08.554Z,51.14
2023-02-22T09:20:12.517Z,50.84
2023-02-22T09:22:14.578Z,49.11
2023-02-22T09:24:16.637Z,48.73
2023-02-22T09:26:18.786Z,48.96
2023-02-22T09:28:22.505Z,47.73
2023-02-22T09:30:36.707Z,44.83
2023-02-22T09:32:42.819Z,45.07
2023-02-22T09:34:47.646Z,42.30
2023-02-22T09:36:51.275Z,43.94
2023-02-22T09:38:57.238Z,44.39
2023-02-22T09:41:16.502Z,40.64
2023-02-22T09:43:49.463Z,42.19
2023-02-22T09:46:13.601Z,41.01
2023-02-22T09:48:21.999Z,39.30
2023-02-22T09:50:42.343Z,38.89
2023-02-22T09:53:07.472Z,40.03
2023-02-22T09:55:34.296Z,39.51
2023-02-22T09:57:43.404Z,41.72
2023-02-22T10:00:14.436Z,37.63
2023-02-22T10:02:24.667Z,39.23
2023-02-22T10:04:41.455Z,39.49
2023-02-22T10:06:51.109Z,40.90
2023-02-22T10:08:58.402Z,35.88
2023-02-22T10:11:12.242Z,35.08
2023-02-22T10:13:25.361Z,34.44
2023-02-22T10:15:34.969Z,38.56
2023-02-22T10:17:52.860Z,35.58
2023-02-22T10:20:17.465Z,34.95
2023-02-22T10:22:51.614Z,35.32
2023-02-22T10:25:19.333Z,35.16
2023-02-22T10:27:28.777Z,36.25
2023-02-22T10:29:51.429Z,35.87
2023-02-22T10:32:05.073Z,38.15
2023-02-22T10:34:21.372Z,38.22
2023-02-22T10:36:23.450Z,37.71
2023-02-22T10:38:30.830Z,37.45
2023-02-22T10:40:32.869Z,38.67
2023-02-22T10:42:35.518Z,40.67
2023-02-22T10:44:38.770Z,37.42
2023-02-22T10:46:42.050Z,37.47
2023-02-22T10:48:46.041Z,35.86
2023-02-22T10:50:48.183Z,36.38
2023-02-22T10:52:50.199Z,34.64
2023-02-22T10:54:52.465Z,34.44
2023-02-22T10:56:55.885Z,34.93
2023-02-22T10:59:02.559Z,37.00
2023-02-22T11:01:37.848Z,36.47
2023-02-22T11:03:39.933Z,36.90
2023-02-22T11:05:42.060Z,36.51
2023-02-22T11:07:44.110Z,36.66
2023-02-22T11:10:06.621Z,36.09
2023-02-22T11:12:18.513Z,35.95
2023-02-22T11:14:30.423Z,35.69
2023-02-22T11:16:52.751Z,34.87
2023-02-22T11:19:15.956Z,34.08
2023-02-22T11:21:22.750Z,33.97
2023-02-22T11:23:24.893Z,35.08
2023-02-22T11:25:30.330Z,34.47
2023-02-22T11:27:41.289Z,34.39
2023-02-22T11:29:43.882Z,36.69
2023-02-22T11:31:46.561Z,35.58
2023-02-22T11:36:04.898Z,34.90
2023-02-22T11:38:53.080Z,35.39
2023-02-22T11:41:23.065Z,35.29
2023-02-22T11:43:25.157Z,36.23
2023-02-22T11:45:27.661Z,34.77
2023-02-22T11:47:29.707Z,34.16
2023-02-22T11:49:39.365Z,34.49
2023-02-22T11:51:53.870Z,33.89
2023-02-22T11:54:25.423Z,33.02
2023-02-22T11:56:47.165Z,32.44
2023-02-22T11:59:15.593Z,30.53
2023-02-22T12:01:34.596Z,31.38
2023-02-22T12:03:58.557Z,29.67
2023-02-22T12:06:24.829Z,30.53
2023-02-22T12:08:47.348Z,31.27
2023-02-22T12:10:57.886Z,30.37
2023-02-22T12:13:51.353Z,30.94
2023-02-22T12:16:11.805Z,30.57
2023-02-22T12:18:22.324Z,30.79
2023-02-22T12:20:32.315Z,100.00
2023-02-22T12:22:38.010Z,100.00
2023-02-22T12:25:08.604Z,100.00
2023-02-22T12:27:20.353Z,100.00
2023-02-22T12:29:31.362Z,100.00
2023-02-22T12:31:57.619Z,100.00
2023-02-22T12:34:21.962Z,100.00
2023-02-22T12:36:26.956Z,100.00
2023-02-22T12:38:44.399Z,100.00
2023-02-22T12:41:20.979Z,100.00
2023-02-22T12:43:25.986Z,100.00
2023-02-22T12:45:43.329Z,100.00
2023-02-22T12:47:55.198Z,100.00
2023-02-22T12:50:22.514Z,100.00
2023-02-22T12:52:48.526Z,100.00
2023-02-22T12:55:34.017Z,100.00
2023-02-22T12:58:06.596Z,100.00
2023-02-22T13:00:42.056Z,100.00
2023-02-22T13:02:48.328Z,100.00
2023-02-22T13:04:50.386Z,100.00
2023-02-22T13:07:14.339Z,100.00
2023-02-22T13:09:59.707Z,100.00
2023-02-22T13:12:07.513Z,100.00
2023-02-22T13:14:33.424Z,100.00
2023-02-22T13:17:07.255Z,100.00
2023-02-22T13:19:27.085Z,100.00
2023-02-22T13:21:46.973Z,100.00
2023-02-22T13:24:14.947Z,100.00
2023-02-22T13:26:32.873Z,100.00
2023-02-22T13:28:39.141Z,100.00
2023-02-22T13:30:49.726Z,100.00
2023-02-22T13:33:06.588Z,100.00
2023-02-22T13:35:23.200Z,100.00
2023-02-22T13:38:20.369Z,100.00
2023-02-22T13:40:47.372Z,100.00
2023-02-22T13:43:57.026Z,100.00
2023-02-22T13:46:24.827Z,100.00
2023-02-22T13:48:28.260Z,100.00
2023-02-22T13:51:00.587Z,100.00
2023-02-22T13:53:10.143Z,100.00
2023-02-22T13:55:34.539Z,100.00
2023-02-22T13:57:50.904Z,100.00
2023-02-22T14:00:14.822Z,100.00
2023-02-22T14:02:53.939Z,100.00
2023-02-22T14:04:55.947Z,100.00
2023-02-22T14:07:02.122Z,100.00
2023-02-22T14:09:09.569Z,100.00
2023-02-22T14:11:14.354Z,100.00
2023-02-22T14:13:18.667Z,100.00
2023-02-22T14:15:30.908Z,100.00
2023-02-22T14:17:33.324Z,100.00
2023-02-22T14:19:35.429Z,100.00
2023-02-22T14:21:37.540Z,100.00
2023-02-22T14:23:44.367Z,100.00
2023-02-22T14:25:46.438Z,100.00
2023-02-22T14:27:48.753Z,100.00
2023-02-22T14:30:00.573Z,100.00
2023-02-22T14:32:10.822Z,100.00
2023-02-22T14:34:16.180Z,100.00
2023-02-22T14:36:20.904Z,100.00
2023-02-22T14:38:23.005Z,100.00
2023-02-22T14:40:32.661Z,100.00
2023-02-22T14:42:36.187Z,100.00
2023-02-22T14:44:59.844Z,100.00
2023-02-22T14:47:05.135Z,100.00
2023-02-22T14:49:10.141Z,100.00
2023-02-22T14:51:44.673Z,100.00
2023-02-22T14:53:49.459Z,100.00
2023-02-22T14:56:07.049Z,100.00
2023-02-22T14:58:46.045Z,100.00
2023-02-22T15:00:50.497Z,100.00
2023-02-22T15:02:57.403Z,100.00
2023-02-22T15:05:00.456Z,100.00
2023-02-22T15:07:30.660Z,100.00
2023-02-22T15:09:37.653Z,100.00
2023-02-22T15:11:40.374Z,100.00
2023-02-22T15:13:53.876Z,100.00
2023-02-22T15:16:04.129Z,100.00
2023-02-22T15:18:12.987Z,100.00
2023-02-22T15:20:16.702Z,100.00
2023-02-22T15:22:26.488Z,100.00
2023-02-22T15:24:31.072Z,100.00
2023-02-22T15:26:42.463Z,100.00
2023-02-22T15:28:48.552Z,100.00
2023-02-22T15:30:53.612Z,100.00
2023-02-22T15:33:04.196Z,100.00
2023-02-22T15:35:23.520Z,100.00
2023-02-22T15:37:28.054Z,100.00
2023-02-22T15:39:34.631Z,100.00
2023-02-22T15:42:21.081Z,100.00
2023-02-22T15:44:43.820Z,100.00
2023-02-22T15:47:06.630Z,100.00
2023-02-22T15:49:20.060Z,100.00
2023-02-22T15:51:22.142Z,100.00
2023-02-22T15:53:30.410Z,100.00
2023-02-22T15:55:36.277Z,100.00
2023-02-22T15:57:38.408Z,100.00
2023-02-22T15:59:47.545Z,100.00
2023-02-22T16:01:51.631Z,100.00
2023-02-22T16:03:56.748Z,100.00
2023-02-22T16:05:58.860Z,100.00
2023-02-22T16:08:00.976Z,100.00
2023-02-22T16:10:09.192Z,100.00
2023-02-22T16:12:31.766Z,100.00
2023-02-22T16:14:36.438Z,100.00
2023-02-22T16:16:43.291Z,100.00
2023-02-22T16:18:45.389Z,100.00
2023-02-22T16:20:47.671Z,100.00
2023-02-22T16:22:50.050Z,100.00
2023-02-22T16:24:52.812Z,100.00
2023-02-22T16:27:23.740Z,100.00
2023-02-22T16:29:26.575Z,100.00
2023-02-22T16:31:39.582Z,100.00
2023-02-22T16:33:43.512Z,100.00
2023-02-22T16:35:52.165Z,100.00
2023-02-22T16:38:03.382Z,100.00
2023-02-22T16:40:13.997Z,100.00
2023-02-22T16:42:20.155Z,100.00
2023-02-22T16:44:25.181Z,100.00
2023-02-22T16:46:27.275Z,100.00
2023-02-22T16:48:32.774Z,100.00
2023-02-22T16:50:34.910Z,100.00
2023-02-22T16:52:36.970Z,100.00
2023-02-22T16:54:45.685Z,100.00
2023-02-22T16:56:47.753Z,100.00
2023-02-22T16:58:50.765Z,100.00
2023-02-22T17:00:52.802Z,100.00
2023-02-22T17:02:54.870Z,100.00
2023-02-22T17:04:57.271Z,100.00
2023-02-22T17:06:59.336Z,100.00
2023-02-22T17:09:01.622Z,100.00
2023-02-22T17:11:04.206Z,100.00
2023-02-22T17:13:21.280Z,100.00
2023-02-22T17:15:32.568Z,100.00
2023-02-22T17:17:34.698Z,100.00
2023-02-22T17:19:37.690Z,100.00
2023-02-22T17:21:40.299Z,100.00
2023-02-22T17:23:46.031Z,100.00
2023-02-22T17:25:59.682Z,100.00
2023-02-22T17:28:01.793Z,100.00
2023-02-22T17:30:04.892Z,100.00
2023-02-22T17:32:07.358Z,100.00
2023-02-22T17:34:09.498Z,100.00
2023-02-22T17:36:13.334Z,100.00
2023-02-22T17:38:18.564Z,100.00
2023-02-22T17:40:20.776Z,100.00
2023-02-22T17:42:22.844Z,100.00
2023-02-22T17:44:26.339Z,100.00
2023-02-22T17:46:28.548Z,100.00
2023-02-22T17:48:30.658Z,100.00
2023-02-22T17:50:32.716Z,100.00
2023-02-22T17:52:34.871Z,100.00
2023-02-22T17:54:36.895Z,100.00
2023-02-22T17:56:38.966Z,100.00
2023-02-22T17:58:41.450Z,100.00
2023-02-22T18:00:49.021Z,100.00
2023-02-22T18:02:51.930Z,100.00
2023-02-22T18:04:54.056Z,100.00
2023-02-22T18:06:56.108Z,100.00
2023-02-22T18:08:58.963Z,100.00
2023-02-22T18:11:05.298Z,100.00
2023-02-22T18:13:07.345Z,100.00
2023-02-22T18:15:15.102Z,100.00
2023-02-22T18:17:17.248Z,100.00
2023-02-22T18:19:20.990Z,100.00
2023-02-22T18:21:26.867Z,100.00
2023-02-22T18:23:30.927Z,100.00
2023-02-22T18:25:33.400Z,100.00
2023-02-22T18:27:36.572Z,100.00
2023-02-22T18:29:38.698Z,100.00
2023-02-22T18:31:40.822Z,100.00
2023-02-22T18:33:44.120Z,100.00
2023-02-22T18:35:50.039Z,100.00
2023-02-22T18:37:52.054Z,100.00
2023-02-22T18:39:57.742Z,100.00
2023-02-22T18:41:59.935Z,100.00
2023-02-22T18:44:03.341Z,100.00
2023-02-22T18:46:19.692Z,100.00
2023-02-22T18:48:22.051Z,100.00
2023-02-22T18:50:24.119Z,100.00
2023-02-22T18:52:26.262Z,100.00
2023-02-22T18:54:28.500Z,100.00
2023-02-22T18:56:30.715Z,100.00
2023-02-22T18:58:32.944Z,100.00
2023-02-22T19:00:35.292Z,100.00
2023-02-22T19:02:37.549Z,100.00
2023-02-22T19:04:40.007Z,100.00
2023-02-22T19:06:44.860Z,100.00
2023-02-22T19:08:47.156Z,100.00
2023-02-22T19:10:49.784Z,100.00
2023-02-22T19:12:51.987Z,100.00
2023-02-22T19:14:53.928Z,100.00
2023-02-22T19:16:59.123Z,100.00
2023-02-22T19:19:01.271Z,100.00
2023-02-22T19:21:04.352Z,100.00
2023-02-22T19:23:15.149Z,100.00
2023-02-22T19:25:17.241Z,100.00
2023-02-22T19:27:19.189Z,100.00
2023-02-22T19:29:24.008Z,100.00
2023-02-22T19:31:29.798Z,100.00
2023-02-22T19:33:31.910Z,100.00
2023-02-22T19:35:33.849Z,100.00
2023-02-22T19:37:36.594Z,100.00
2023-02-22T19:39:50.774Z,100.00
2023-02-22T19:42:11.460Z,100.00
2023-02-22T19:44:33.828Z,100.00
2023-02-22T19:46:55.597Z,100.00
2023-02-22T19:49:00.661Z,100.00
2023-02-22T19:51:09.842Z,100.00
2023-02-22T19:53:17.132Z,100.00
2023-02-22T19:55:39.461Z,100.00
2023-02-22T19:57:42.389Z,100.00
2023-02-22T19:59:45.153Z,100.00
2023-02-22T20:01:47.221Z,100.00
2023-02-22T20:03:54.371Z,100.00
2023-02-22T20:05:59.807Z,100.00
2023-02-22T20:08:01.812Z,100.00
2023-02-22T20:10:07.835Z,100.00
2023-02-22T20:12:09.938Z,100.00
2023-02-22T20:14:23.540Z,100.00
2023-02-22T20:16:28.823Z,100.00
2023-02-22T20:18:30.797Z,100.00
2023-02-22T20:20:33.569Z,100.00
2023-02-22T20:22:35.527Z,100.00
2023-02-22T20:24:37.492Z,100.00
2023-02-22T20:26:40.140Z,100.00
2023-02-22T20:29:00.495Z,100.00
2023-02-22T20:31:02.473Z,100.00
2023-02-22T20:33:23.414Z,100.00
2023-02-22T20:35:46.821Z,100.00
2023-02-22T20:37:48.899Z,100.00
2023-02-22T20:40:05.331Z,100.00
2023-02-22T20:42:08.748Z,100.00
2023-02-22T20:44:15.454Z,100.00
2023-02-22T20:46:17.486Z,100.00
2023-02-22T20:48:19.509Z,100.00
2023-02-22T20:50:21.509Z,100.00
2023-02-22T20:52:23.626Z,100.00
2023-02-22T20:54:25.734Z,100.00
2023-02-22T20:56:29.100Z,100.00
2023-02-22T20:58:31.550Z,100.00
2023-02-22T21:00:33.520Z,100.00
2023-02-22T21:02:35.597Z,100.00
2023-02-22T21:04:37.719Z,100.00
2023-02-22T21:06:39.825Z,100.00
2023-02-22T21:08:43.578Z,100.00
2023-02-22T21:10:46.451Z,100.00
2023-02-22T21:12:48.656Z,100.00
2023-02-22T21:14:51.048Z,100.00
2023-02-22T21:16:53.297Z,100.00
2023-02-22T21:19:00.882Z,100.00
2023-02-22T21:21:10.541Z,100.00
2023-02-22T21:23:12.547Z,100.00
2023-02-22T21:25:16.684Z,100.00
2023-02-22T21:27:18.736Z,100.00
2023-02-22T21:29:20.712Z,100.00
2023-02-22T21:31:24.121Z,100.00
2023-02-22T21:33:27.237Z,100.00
2023-02-22T21:35:30.608Z,100.00
2023-02-22T21:37:34.120Z,100.00
2023-02-22T21:39:36.211Z,100.00
2023-02-22T21:41:40.961Z,100.00
2023-02-22T21:43:43.660Z,100.00
2023-02-22T21:45:45.738Z,100.00
2023-02-22T21:47:48.010Z,100.00
2023-02-22T21:49:49.963Z,100.00
2023-02-22T21:51:52.654Z,100.00
2023-02-22T21:53:54.785Z,100.00
2023-02-22T21:55:56.838Z,100.00
2023-02-22T21:57:58.940Z,100.00
2023-02-22T22:00:00.953Z,100.00
2023-02-22T22:02:03.016Z,100.00
2023-02-22T22:04:05.205Z,100.00
2023-02-22T22:06:09.921Z,100.00
2023-02-22T22:08:19.423Z,100.00
2023-02-22T22:10:27.215Z,100.00
2023-02-22T22:12:38.748Z,100.00
2023-02-22T22:14:41.250Z,100.00
2023-02-22T22:16:43.453Z,100.00
2023-02-22T22:18:45.857Z,100.00
2023-02-22T22:20:51.698Z,100.00
2023-02-22T22:22:55.064Z,100.00
2023-02-22T22:24:56.994Z,100.00
2023-02-22T22:27:03.698Z,100.00
2023-02-22T22:29:05.841Z,100.00
2023-02-22T22:31:07.998Z,100.00
2023-02-22T22:33:12.791Z,100.00
2023-02-22T22:35:14.820Z,100.00
2023-02-22T22:37:16.950Z,100.00
2023-02-22T22:39:21.083Z,100.00
2023-02-22T22:41:23.483Z,100.00
2023-02-22T22:43:25.453Z,100.00
2023-02-22T22:45:27.481Z,100.00
2023-02-22T22:47:29.682Z,100.00
2023-02-22T22:49:33.563Z,100.00
2023-02-22T22:51:36.128Z,100.00
2023-02-22T22:53:42.628Z,100.00
2023-02-22T22:55:44.541Z,100.00
2023-02-22T22:57:46.471Z,100.00
2023-02-22T22:59:49.961Z,100.00
2023-02-22T23:01:52.418Z,100.00
2023-02-22T23:03:56.242Z,100.00
2023-02-22T23:06:00.754Z,100.00
2023-02-22T23:08:05.018Z,100.00
2023-02-22T23:10:12.695Z,100.00
2023-02-22T23:12:17.785Z,100.00
2023-02-22T23:14:31.247Z,100.00
2023-02-22T23:16:33.481Z,100.00
2023-02-22T23:18:36.426Z,100.00
2023-02-22T23:20:39.067Z,100.00
2023-02-22T23:22:46.686Z,100.00
2023-02-22T23:24:48.692Z,100.00
2023-02-22T23:26:50.844Z,100.00
2023-02-22T23:28:56.804Z,100.00
2023-02-22T23:31:03.360Z,100.00
2023-02-22T23:33:05.358Z,100.00
2023-02-22T23:35:08.222Z,100.00
2023-02-22T23:37:10.843Z,100.00
2023-02-22T23:39:14.256Z,100.00
2023-02-22T23:41:19.240Z,100.00
2023-02-22T23:43:25.544Z,100.00
2023-02-22T23:45:28.046Z,100.00
2023-02-22T23:47:31.801Z,100.00
2023-02-22T23:49:36.047Z,100.00
2023-02-22T23:51:42.926Z,100.00
2023-02-22T23:53:46.114Z,100.00
2023-02-22T23:55:49.205Z,100.00
2023-02-22T23:57:51.325Z,100.00
2023-02-22T23:59:53.298Z,100.00
